createdAt,value
2024-05-09T00:01:28.688Z,15.99
2024-05-09T00:04:31.063Z,16.13
2024-05-09T00:07:33.484Z,16.12
2024-05-09T00:10:38.256Z,16.06
2024-05-09T00:13:42.113Z,16.16
2024-05-09T00:16:44.576Z,16.14
2024-05-09T00:19:47.068Z,16.20
2024-05-09T00:22:49.485Z,16.20
2024-05-09T00:25:51.908Z,16.20
2024-05-09T00:28:54.263Z,16.19
2024-05-09T00:31:56.678Z,16.09
2024-05-09T00:34:59.073Z,16.13
2024-05-09T00:38:01.587Z,16.19
2024-05-09T00:41:04.225Z,16.20
2024-05-09T00:44:06.688Z,16.13
2024-05-09T00:47:09.275Z,16.12
2024-05-09T00:50:19.024Z,16.02
2024-05-09T00:53:25.564Z,15.88
2024-05-09T00:56:28.593Z,15.79
2024-05-09T00:59:32.627Z,15.70
2024-05-09T01:02:35.318Z,15.68
2024-05-09T01:05:39.352Z,15.57
2024-05-09T01:08:42.112Z,15.44
2024-05-09T01:11:44.558Z,15.39
2024-05-09T01:14:47.005Z,15.37
2024-05-09T01:17:49.452Z,15.39
2024-05-09T01:20:51.987Z,15.44
2024-05-09T01:23:54.285Z,15.37
2024-05-09T01:26:56.602Z,15.30
2024-05-09T01:29:58.889Z,15.39
2024-05-09T01:33:01.711Z,15.32
2024-05-09T01:36:04.391Z,15.35
2024-05-09T01:39:06.764Z,15.30
2024-05-09T01:42:09.071Z,15.31
2024-05-09T01:45:12.774Z,15.31
2024-05-09T01:48:15.344Z,15.32
2024-05-09T01:51:17.797Z,15.34
2024-05-09T01:54:20.148Z,15.30
2024-05-09T01:57:22.547Z,15.28
2024-05-09T02:00:36.937Z,15.32
2024-05-09T02:03:46.894Z,15.39
2024-05-09T02:06:49.217Z,15.38
2024-05-09T02:09:52.853Z,15.31
2024-05-09T02:12:55.122Z,15.31
2024-05-09T02:15:57.407Z,15.41
2024-05-09T02:18:59.820Z,15.44
2024-05-09T02:22:02.260Z,15.41
2024-05-09T02:25:04.732Z,15.51
2024-05-09T02:28:07.227Z,15.54
2024-05-09T02:31:13.340Z,15.41
2024-05-09T02:34:15.655Z,15.39
2024-05-09T02:37:17.966Z,15.38
2024-05-09T02:40:25.747Z,15.39
2024-05-09T02:43:36.046Z,15.39
2024-05-09T02:46:38.333Z,15.41
2024-05-09T02:49:40.744Z,15.38
2024-05-09T02:52:43.194Z,15.48
2024-05-09T02:55:45.684Z,15.47
2024-05-09T02:58:48.110Z,15.49
2024-05-09T03:01:50.589Z,15.49
2024-05-09T03:04:53.050Z,15.57
2024-05-09T03:07:55.410Z,15.54
2024-05-09T03:10:57.883Z,15.51
2024-05-09T03:14:00.262Z,15.51
2024-05-09T03:17:02.808Z,15.45
2024-05-09T03:20:09.144Z,15.44
2024-05-09T03:23:14.126Z,15.45
2024-05-09T03:26:18.212Z,15.44
2024-05-09T03:29:20.578Z,15.39
2024-05-09T03:32:22.995Z,15.35
2024-05-09T03:35:25.505Z,15.30
2024-05-09T03:38:27.945Z,15.37
2024-05-09T03:41:30.372Z,15.42
2024-05-09T03:44:32.954Z,15.35
2024-05-09T03:47:35.671Z,15.37
2024-05-09T03:50:38.470Z,15.39
2024-05-09T03:53:40.975Z,15.42
2024-05-09T03:56:43.346Z,15.48
2024-05-09T03:59:45.692Z,15.48
2024-05-09T04:02:48.115Z,15.44
2024-05-09T04:05:50.545Z,15.52
2024-05-09T04:08:53.709Z,15.49
2024-05-09T04:11:56.078Z,15.47
2024-05-09T04:14:58.455Z,15.48
2024-05-09T04:18:01.556Z,15.61
2024-05-09T04:21:05.203Z,15.65
2024-05-09T04:24:07.620Z,15.62
2024-05-09T04:27:09.899Z,15.63
2024-05-09T04:30:18.520Z,15.68
2024-05-09T04:33:24.454Z,15.61
2024-05-09T04:36:27.668Z,15.63
2024-05-09T04:39:30.717Z,15.63
2024-05-09T04:42:33.003Z,15.59
2024-05-09T04:45:35.828Z,15.54
2024-05-09T04:48:38.442Z,15.49
2024-05-09T04:51:43.870Z,15.49
2024-05-09T04:54:46.295Z,15.54
2024-05-09T04:57:48.555Z,15.65
2024-05-09T05:00:51.308Z,15.69
2024-05-09T05:03:55.840Z,15.82
2024-05-09T05:07:02.705Z,15.95
2024-05-09T05:10:05.990Z,16.05
2024-05-09T05:13:20.652Z,16.02
2024-05-09T05:16:24.811Z,15.99
2024-05-09T05:19:27.360Z,16.00
2024-05-09T05:22:29.726Z,16.07
2024-05-09T05:25:31.995Z,16.13
2024-05-09T05:28:34.306Z,16.06
2024-05-09T05:31:36.633Z,16.24
2024-05-09T05:34:38.995Z,16.40
2024-05-09T05:37:41.365Z,16.56
2024-05-09T05:40:43.706Z,16.58
2024-05-09T05:43:46.071Z,16.79
2024-05-09T05:46:48.492Z,16.79
2024-05-09T05:49:50.841Z,16.70
2024-05-09T05:52:53.203Z,16.78
2024-05-09T05:55:55.539Z,16.70
2024-05-09T05:58:57.921Z,16.92
2024-05-09T06:02:00.351Z,17.04
2024-05-09T06:05:03.499Z,17.02
2024-05-09T06:08:10.583Z,16.92
2024-05-09T06:11:17.212Z,17.22
2024-05-09T06:14:19.777Z,17.16
2024-05-09T06:17:22.315Z,17.20
2024-05-09T06:20:34.279Z,17.07
2024-05-09T06:23:49.023Z,17.20
2024-05-09T06:26:51.479Z,17.15
2024-05-09T06:29:56.202Z,16.99
2024-05-09T06:32:58.867Z,17.02
2024-05-09T06:36:04.515Z,17.02
2024-05-09T06:39:07.007Z,17.09
2024-05-09T06:42:09.318Z,17.01
2024-05-09T06:45:11.670Z,17.01
2024-05-09T06:48:19.449Z,17.02
2024-05-09T06:51:23.076Z,17.25
2024-05-09T06:54:25.526Z,17.32
2024-05-09T06:57:29.945Z,17.36
2024-05-09T07:00:38.609Z,17.40
2024-05-09T07:03:43.336Z,17.30
2024-05-09T07:06:45.659Z,17.52
2024-05-09T07:09:48.437Z,17.73
2024-05-09T07:12:50.761Z,18.04
2024-05-09T07:15:53.062Z,18.21
2024-05-09T07:18:55.627Z,18.58
2024-05-09T07:21:59.928Z,18.90
2024-05-09T07:25:02.446Z,18.98
2024-05-09T07:28:09.872Z,18.77
2024-05-09T07:31:12.214Z,19.02
2024-05-09T07:34:16.575Z,19.23
2024-05-09T07:37:19.101Z,18.81
2024-05-09T07:40:29.066Z,18.89
2024-05-09T07:43:37.807Z,18.86
2024-05-09T07:47:47.716Z,18.75
2024-05-09T07:51:54.759Z,18.92
2024-05-09T07:53:39.853Z,19.09
2024-05-09T07:56:47.116Z,19.26
2024-05-09T07:59:49.498Z,19.37
2024-05-09T08:02:51.828Z,19.40
2024-05-09T08:05:54.708Z,19.14
2024-05-09T08:08:59.143Z,19.12
2024-05-09T08:12:03.200Z,19.04
2024-05-09T08:15:05.997Z,18.96
2024-05-09T08:18:12.462Z,19.03
2024-05-09T08:21:15.027Z,18.83
2024-05-09T08:24:17.394Z,19.12
2024-05-09T08:27:19.724Z,19.46
2024-05-09T08:30:30.095Z,19.40
2024-05-09T08:33:51.648Z,19.43
2024-05-09T08:36:56.275Z,19.50
2024-05-09T08:40:00.334Z,19.28
2024-05-09T08:43:06.066Z,19.35
2024-05-09T08:46:08.990Z,19.31
2024-05-09T08:49:12.090Z,19.35
2024-05-09T08:52:14.669Z,19.70
2024-05-09T08:55:17.310Z,20.01
2024-05-09T08:58:20.280Z,20.26
2024-05-09T09:01:26.071Z,20.40
2024-05-09T09:04:30.500Z,20.72
2024-05-09T09:07:33.688Z,20.90
2024-05-09T09:10:39.687Z,21.00
2024-05-09T09:13:42.150Z,22.29
2024-05-09T09:16:46.034Z,23.26
2024-05-09T09:19:48.476Z,23.59
2024-05-09T09:22:50.886Z,24.96
2024-05-09T09:25:53.197Z,25.73
2024-05-09T09:29:00.778Z,25.84
2024-05-09T09:32:05.326Z,26.18
2024-05-09T09:35:08.446Z,26.21
2024-05-09T09:38:13.866Z,26.55
2024-05-09T09:41:17.944Z,26.11
2024-05-09T09:44:22.305Z,26.36
2024-05-09T09:47:27.389Z,26.70
2024-05-09T09:50:34.421Z,25.95
2024-05-09T09:53:38.677Z,26.24
2024-05-09T09:56:43.370Z,26.32
2024-05-09T09:59:50.310Z,25.31
2024-05-09T10:02:52.796Z,25.41
2024-05-09T10:05:55.956Z,25.77
2024-05-09T10:08:58.602Z,25.92
2024-05-09T10:12:11.300Z,25.51
2024-05-09T10:15:13.799Z,25.58
2024-05-09T10:18:27.267Z,25.78
2024-05-09T10:21:31.931Z,26.52
2024-05-09T10:24:47.453Z,27.14
2024-05-09T10:27:55.386Z,27.88
2024-05-09T10:31:11.934Z,27.27
2024-05-09T10:34:24.380Z,28.43
2024-05-09T10:37:29.184Z,27.79
2024-05-09T10:40:32.167Z,26.22
2024-05-09T10:43:39.344Z,27.48
2024-05-09T10:46:42.604Z,27.95
2024-05-09T10:49:45.245Z,27.20
2024-05-09T10:52:47.630Z,26.64
2024-05-09T10:55:56.938Z,27.15
2024-05-09T10:58:59.259Z,26.82
2024-05-09T11:02:04.931Z,27.11
2024-05-09T11:05:08.345Z,26.68
2024-05-09T11:08:11.755Z,26.83
2024-05-09T11:11:15.024Z,26.99
2024-05-09T11:14:17.476Z,27.47
2024-05-09T11:17:19.887Z,27.79
2024-05-09T11:20:29.125Z,27.77
2024-05-09T11:23:32.397Z,28.02
2024-05-09T11:26:34.753Z,27.96
2024-05-09T11:29:43.204Z,28.22
2024-05-09T11:32:45.559Z,28.22
2024-05-09T11:35:48.062Z,28.74
2024-05-09T11:38:50.409Z,28.65
2024-05-09T11:41:52.797Z,28.77
2024-05-09T11:44:55.086Z,28.67
2024-05-09T11:47:57.636Z,28.63
2024-05-09T11:51:00.157Z,28.17
2024-05-09T11:54:02.820Z,28.22
2024-05-09T11:57:05.308Z,28.43
2024-05-09T12:00:11.865Z,28.83
2024-05-09T12:03:14.747Z,29.12
2024-05-09T12:06:19.690Z,28.63
2024-05-09T12:09:22.053Z,29.11
2024-05-09T12:12:24.395Z,29.05
2024-05-09T12:15:26.673Z,29.32
2024-05-09T12:18:29.155Z,28.87
2024-05-09T12:21:31.594Z,29.69
2024-05-09T12:24:33.939Z,29.70
2024-05-09T12:27:37.327Z,29.33
2024-05-09T12:30:41.547Z,29.42
2024-05-09T12:33:44.471Z,29.61
2024-05-09T12:36:46.869Z,29.41
2024-05-09T12:39:49.221Z,29.36
2024-05-09T12:42:51.574Z,29.55
2024-05-09T12:45:54.059Z,29.32
2024-05-09T12:48:56.670Z,29.14
2024-05-09T12:51:59.243Z,28.94
2024-05-09T12:55:01.636Z,28.50
2024-05-09T12:58:07.308Z,28.92
2024-05-09T13:01:09.916Z,28.53
2024-05-09T13:04:12.497Z,28.91
2024-05-09T13:07:15.680Z,28.29
2024-05-09T13:10:28.683Z,28.94
2024-05-09T13:13:34.651Z,28.97
2024-05-09T13:16:37.120Z,29.12
2024-05-09T13:19:39.502Z,28.60
2024-05-09T13:22:42.589Z,28.67
2024-05-09T13:25:45.048Z,28.56
2024-05-09T13:28:47.359Z,28.01
2024-05-09T13:31:49.686Z,28.27
2024-05-09T13:34:52.038Z,27.89
2024-05-09T13:37:54.560Z,27.66
2024-05-09T13:40:56.885Z,27.34
2024-05-09T13:43:59.349Z,27.14
2024-05-09T13:47:01.665Z,27.14
2024-05-09T13:50:06.932Z,26.60
2024-05-09T13:53:09.422Z,26.91
2024-05-09T13:56:12.786Z,27.07
2024-05-09T13:59:15.050Z,27.23
2024-05-09T14:02:17.488Z,26.93
2024-05-09T14:05:20.043Z,27.20
2024-05-09T14:08:23.034Z,27.23
2024-05-09T14:11:25.481Z,27.71
2024-05-09T14:14:27.866Z,28.03
2024-05-09T14:17:30.351Z,27.42
2024-05-09T14:20:32.878Z,27.40
2024-05-09T14:23:35.217Z,26.90
2024-05-09T14:26:37.599Z,27.42
2024-05-09T14:29:40.002Z,27.84
2024-05-09T14:32:42.404Z,27.45
2024-05-09T14:35:44.803Z,27.78
2024-05-09T14:38:47.174Z,27.58
2024-05-09T14:41:49.473Z,27.06
2024-05-09T14:44:51.756Z,26.94
2024-05-09T14:47:54.175Z,27.15
2024-05-09T14:50:56.680Z,27.37
2024-05-09T14:53:59.022Z,27.31
2024-05-09T14:57:01.386Z,26.87
2024-05-09T15:00:06.906Z,26.91
2024-05-09T15:03:11.406Z,26.89
2024-05-09T15:06:14.143Z,26.39
2024-05-09T15:09:16.504Z,26.11
2024-05-09T15:12:18.782Z,26.14
2024-05-09T15:15:21.370Z,26.28
2024-05-09T15:18:23.954Z,25.98
2024-05-09T15:21:26.346Z,25.54
2024-05-09T15:24:29.168Z,25.57
2024-05-09T15:27:31.670Z,25.30
2024-05-09T15:30:34.979Z,25.15
2024-05-09T15:33:37.688Z,24.83
2024-05-09T15:36:42.582Z,24.85
2024-05-09T15:39:45.720Z,24.86
2024-05-09T15:42:48.164Z,24.78
2024-05-09T15:45:51.214Z,24.32
2024-05-09T15:48:53.843Z,23.83
2024-05-09T15:51:56.317Z,23.84
2024-05-09T15:54:58.674Z,23.55
2024-05-09T15:58:02.271Z,23.59
2024-05-09T16:01:05.082Z,23.36
2024-05-09T16:04:07.587Z,23.50
2024-05-09T16:07:10.298Z,23.57
2024-05-09T16:10:19.736Z,23.76
2024-05-09T16:13:25.062Z,23.88
2024-05-09T16:16:27.662Z,23.87
2024-05-09T16:19:30.074Z,23.71
2024-05-09T16:22:32.374Z,23.66
2024-05-09T16:25:34.659Z,23.33
2024-05-09T16:28:37.142Z,23.46
2024-05-09T16:31:39.565Z,23.06
2024-05-09T16:34:41.954Z,23.04
2024-05-09T16:37:44.414Z,23.15
2024-05-09T16:40:47.236Z,22.85
2024-05-09T16:43:49.553Z,23.09
2024-05-09T16:46:52.126Z,23.19
2024-05-09T16:49:54.504Z,23.28
2024-05-09T16:52:56.804Z,23.09
2024-05-09T16:55:59.173Z,22.95
2024-05-09T16:59:01.599Z,22.85
2024-05-09T17:02:04.333Z,22.54
2024-05-09T17:05:07.165Z,22.46
2024-05-09T17:08:09.702Z,22.23
2024-05-09T17:11:13.296Z,22.05
2024-05-09T17:14:15.678Z,22.00
2024-05-09T17:17:19.624Z,21.86
2024-05-09T17:20:29.552Z,21.82
2024-05-09T17:23:36.299Z,21.37
2024-05-09T17:26:38.624Z,21.30
2024-05-09T17:29:41.099Z,21.20
2024-05-09T17:32:43.556Z,21.07
2024-05-09T17:35:50.141Z,20.83
2024-05-09T17:38:52.508Z,20.62
2024-05-09T17:41:55.324Z,20.63
2024-05-09T17:44:57.595Z,20.52
2024-05-09T17:48:00.828Z,20.45
2024-05-09T17:51:03.305Z,19.92
2024-05-09T17:54:05.992Z,19.44
2024-05-09T17:57:09.264Z,19.27
2024-05-09T18:00:17.229Z,19.43
2024-05-09T18:03:20.069Z,19.38
2024-05-09T18:06:22.449Z,19.12
2024-05-09T18:09:25.156Z,18.99
2024-05-09T18:12:27.449Z,18.85
2024-05-09T18:15:29.745Z,18.75
2024-05-09T18:18:32.362Z,18.62
2024-05-09T18:21:34.812Z,18.48
2024-05-09T18:24:37.217Z,18.21
2024-05-09T18:27:39.575Z,18.07
2024-05-09T18:30:42.058Z,17.69
2024-05-09T18:33:44.555Z,17.16
2024-05-09T18:36:47.641Z,17.15
2024-05-09T18:39:50.033Z,17.38
2024-05-09T18:42:52.453Z,17.23
2024-05-09T18:45:55.005Z,17.16
2024-05-09T18:48:57.825Z,17.04
2024-05-09T18:52:00.278Z,17.08
2024-05-09T18:55:02.612Z,17.09
2024-05-09T18:58:07.176Z,17.09
2024-05-09T19:01:09.820Z,16.95
2024-05-09T19:04:12.431Z,16.77
2024-05-09T19:07:15.202Z,16.61
2024-05-09T19:10:22.693Z,16.53
2024-05-09T19:13:28.644Z,16.38
2024-05-09T19:16:31.515Z,16.37
2024-05-09T19:19:35.317Z,16.26
2024-05-09T19:22:37.753Z,16.19
2024-05-09T19:25:40.395Z,16.24
2024-05-09T19:28:42.843Z,16.16
2024-05-09T19:31:45.174Z,16.13
2024-05-09T19:34:47.467Z,15.99
2024-05-09T19:37:51.532Z,15.97
2024-05-09T19:40:53.869Z,15.65
2024-05-09T19:43:56.236Z,15.58
2024-05-09T19:46:58.560Z,15.51
2024-05-09T19:50:01.049Z,15.25
2024-05-09T19:53:03.694Z,15.47
2024-05-09T19:56:06.225Z,15.44
2024-05-09T19:59:08.575Z,15.35
2024-05-09T20:02:11.151Z,15.17
2024-05-09T20:05:13.770Z,15.01
2024-05-09T20:08:16.516Z,14.93
2024-05-09T20:11:18.983Z,14.76
2024-05-09T20:14:21.297Z,14.53
2024-05-09T20:17:23.601Z,14.42
2024-05-09T20:20:33.806Z,14.33
2024-05-09T20:23:40.734Z,14.43
2024-05-09T20:26:43.044Z,14.52
2024-05-09T20:29:45.453Z,14.47
2024-05-09T20:32:47.950Z,14.49
2024-05-09T20:35:50.342Z,14.37
2024-05-09T20:38:52.658Z,14.36
2024-05-09T20:41:54.954Z,14.32
2024-05-09T20:44:57.271Z,14.28
2024-05-09T20:47:59.941Z,14.26
2024-05-09T20:51:02.387Z,14.06
2024-05-09T20:54:04.801Z,14.09
2024-05-09T20:57:07.112Z,13.91
2024-05-09T21:00:15.321Z,13.84
2024-05-09T21:03:21.317Z,13.55
2024-05-09T21:06:23.871Z,13.33
2024-05-09T21:09:26.186Z,13.43
2024-05-09T21:12:29.367Z,13.34
2024-05-09T21:15:32.197Z,13.17
2024-05-09T21:18:34.659Z,13.04
2024-05-09T21:21:41.124Z,12.88
2024-05-09T21:24:43.462Z,12.41
2024-05-09T21:27:45.838Z,12.27
2024-05-09T21:30:48.393Z,12.71
2024-05-09T21:33:50.848Z,12.78
2024-05-09T21:36:53.294Z,12.61
2024-05-09T21:39:55.698Z,12.71
2024-05-09T21:42:58.118Z,12.61
2024-05-09T21:46:00.575Z,12.46
2024-05-09T21:49:03.258Z,12.66
2024-05-09T21:52:05.846Z,12.61
2024-05-09T21:55:08.410Z,12.65
2024-05-09T21:58:14.615Z,12.62
2024-05-09T22:01:17.089Z,12.65
2024-05-09T22:04:19.680Z,12.73
2024-05-09T22:07:22.124Z,12.48
2024-05-09T22:10:30.991Z,12.38
2024-05-09T22:13:36.785Z,12.44
2024-05-09T22:16:41.968Z,12.46
2024-05-09T22:19:49.257Z,12.55
2024-05-09T22:22:54.398Z,12.45
2024-05-09T22:25:56.704Z,12.49
2024-05-09T22:28:58.987Z,12.41
2024-05-09T22:32:01.276Z,12.24
2024-05-09T22:35:03.879Z,12.17
2024-05-09T22:38:06.409Z,12.18
2024-05-09T22:41:09.209Z,12.16
2024-05-09T22:44:11.623Z,12.18
2024-05-09T22:47:14.051Z,12.25
2024-05-09T22:50:22.775Z,12.27
2024-05-09T22:53:29.196Z,12.24
2024-05-09T22:56:31.546Z,12.24
2024-05-09T22:59:33.862Z,12.28
2024-05-09T23:02:36.296Z,12.34
2024-05-09T23:05:38.849Z,12.30
2024-05-09T23:08:41.240Z,12.16
2024-05-09T23:11:45.119Z,12.17
2024-05-09T23:14:47.665Z,12.14
2024-05-09T23:17:50.146Z,12.01
2024-05-09T23:20:52.710Z,11.94
2024-05-09T23:23:55.140Z,11.66
2024-05-09T23:26:58.057Z,11.50
2024-05-09T23:30:00.376Z,11.49
2024-05-09T23:33:03.623Z,11.56
2024-05-09T23:36:07.931Z,11.67
2024-05-09T23:39:10.242Z,11.73
2024-05-09T23:42:12.623Z,11.50
2024-05-09T23:45:15.140Z,11.62
2024-05-09T23:48:17.630Z,11.46
2024-05-09T23:51:20.024Z,10.85
2024-05-09T23:54:22.369Z,10.43
2024-05-09T23:57:24.690Z,10.05
